Blair, Texas
Current Conditions -  °F | °C
As of 7:58 AM on Thursday 30 Oct 2014 (Local Time) from KDYS Reporting Station
Clear Clear  
Wind Chill: 57°   Ceiling: Unl
Heat Index: 57°   Visibility: 10mi
Dew Point: 52°   Wind: 10mph
Humidity: 82%   Direction: 140°SE
Pressure: 30.11"   Gusts: NA
Location:  32.3913°N, 100.009°W
Report Text: KDYS 301258Z AUTO 14009KT 10SM CLR 14/11 A3011 RMK AO2 SLP170 T01400110 $
Loading
Personal Weather Stations






























Interactive Weather Map
Tropical Storm Tracking
New forecast layout! Learn more

10-Day Weather Forecast

Advertisements
Track Severe Weather on mobile